Puerto Banus, Marbella

>

This is an optional block (switch it off / on) in the settings - file ($SITE['banners'] = false;)

You can display ads, any other important text or photo’s using text / html or PHP code.

You can place one or more at the top and or bottom and it can all be different for content / size .



Meteosat more information blitzortung!


Radar lluvias  rain snow radar


Visita nuestra red de sitios de meteo:

Documentation for the template used

MeteoibericaRed estaciones Meteorologicas

MeteoclimaticRed estaciones Meteorologicas



Sin Advertencias climatologicas .En este momento tenemos Nivel Verde.    No hay Alarmas

Pagina Historial Weather Underground texto

Diario Resumen January 4, 2018 Unidades:  Métrico    impérial   Tanto
« Anterior Dia
Siguiente Dia »
Diario Semana Mensual Anual Personalizada
  Maxima: Minima: Media:
Temperatura: -17.8 °C -11.6 °C -9.8 °C
Punto de rocío: -17.8 °C -13.7 °C -11.9 °C
Humedad: Humidity % 62 % 78 %
Velocidad del Viento: 0 km/h 0 km/h 9 km/h
Ráfagas de viento: 0 km/h - -
Viento:- - SSW
Pression baro: 0 hPa 34625.2 hPa -
Précipitaciones: 0 mm    
Historical Graphs
 
 
Datos de tabla para January 4, 2018
Tiempo Temperatura Punto de rocío Pression baro Viento Velocidad del Viento Ráfagas de viento Humedad Las precipitaciones Rate ( Hora )
-17.8 °C -17.8 °C 0 hPa Calm     Humidity % 0 mm
00:03 -8.9 °C -12.3 °C 34818.2 hPa North 7.7 km/h 7.7 km/h 67 % 0 mm
00:04 -9 °C -12.4 °C 34818.2 hPa North 9 km/h 9 km/h 67 % 0 mm
00:09 -9.1 °C -12.4 °C 34818.2 hPa North 15 km/h 15 km/h 67 % 0 mm
00:11 -9.1 °C -12.4 °C 34818.2 hPa North 20.9 km/h 20.9 km/h 67 % 0 mm
00:16 -9.1 °C -12.6 °C 34818.2 hPa North 15 km/h 15 km/h 67 % 0 mm
00:20 -9.2 °C -12.6 °C 34808.1 hPa North 15 km/h 15 km/h 67 % 0 mm
00:21 -9.2 °C -12.6 °C 34808.1 hPa North 15 km/h 15 km/h 67 % 0 mm
00:26 -9.2 °C -12.6 °C 34808.1 hPa NNW 9 km/h 9 km/h 67 % 0 mm
00:27 -9.2 °C -12.6 °C 34808.1 hPa NNW 9 km/h 9 km/h 67 % 0 mm
00:32 -9.3 °C -12.7 °C 34808.1 hPa NNW 9 km/h 9 km/h 67 % 0 mm
00:33 -9.3 °C -12.7 °C 34808.1 hPa NNW 9 km/h 9 km/h 67 % 0 mm
00:37 -9.3 °C -12.7 °C 34808.1 hPa North 11.9 km/h 11.9 km/h 67 % 0 mm
00:42 -9.3 °C -12.7 °C 34797.9 hPa NNW 9 km/h 9 km/h 67 % 0 mm
00:43 -9.3 °C -12.7 °C 34797.9 hPa NNW 9 km/h 9 km/h 67 % 0 mm
00:45 -9.3 °C -12.8 °C 34797.9 hPa North 5.1 km/h 12.9 km/h 66 % 0 mm
00:49 -9.2 °C -13.1 °C 34797.9 hPa NNW 10.3 km/h 10.3 km/h 63 % 0 mm
01:01 -9.3 °C -13.2 °C 34797.9 hPa NNW 15 km/h 15 km/h 63 % 0 mm
01:06 -9.4 °C -13.2 °C 34797.9 hPa North 12.9 km/h 12.9 km/h 64 % 0 mm
01:07 -9.4 °C -13.2 °C 34797.9 hPa North 15.6 km/h 15.6 km/h 64 % 0 mm
01:13 -9.4 °C -13.3 °C 34797.9 hPa NNW 9 km/h 9 km/h 63 % 0 mm
01:15 -9.4 °C -13.4 °C 34797.9 hPa NNW 6 km/h 6 km/h 62 % 0 mm
01:19 -9.4 °C -13.3 °C 34797.9 hPa Calm     63 % 0 mm
01:24 -9.4 °C -13.3 °C 34797.9 hPa NNW 3.1 km/h 3.1 km/h 63 % 0 mm
01:27 -9.4 °C -13.4 °C 34797.9 hPa NNW 3.1 km/h 3.1 km/h 62 % 0 mm
01:31 -9.4 °C -13.2 °C 34797.9 hPa NNW 9 km/h 9 km/h 64 % 0 mm
01:32 -9.4 °C -13.1 °C 34797.9 hPa NNW 9 km/h 9 km/h 65 % 0 mm
01:34 -9.4 °C -13.1 °C 34797.9 hPa NNW 6 km/h 6 km/h 65 % 0 mm
01:38 -9.6 °C -13.3 °C 34784.4 hPa NNW 9 km/h 9 km/h 64 % 0 mm
01:39 -9.6 °C -13.3 °C 34784.4 hPa NNW 9 km/h 9 km/h 64 % 0 mm
01:41 -9.6 °C -13.3 °C 34784.4 hPa NNW 9 km/h 9 km/h 64 % 0 mm
01:44 -9.6 °C -13.3 °C 34784.4 hPa NNW 9 km/h 9 km/h 64 % 0 mm
01:48 -9.6 °C -13.4 °C 34784.4 hPa NNW 9 km/h 9 km/h 64 % 0 mm
01:49 -9.6 °C -13.2 °C 34784.4 hPa NNW 9 km/h 9 km/h 65 % 0 mm
01:54 -9.6 °C -13 °C 34784.4 hPa NNW 6 km/h 6 km/h 67 % 0 mm
01:55 -9.6 °C -12.9 °C 34784.4 hPa Calm     68 % 0 mm
02:00 -9.6 °C -12.9 °C 34784.4 hPa NNW 2.6 km/h 7.7 km/h 68 % 0 mm
02:01 -9.7 °C -12.9 °C 34784.4 hPa NNW 9 km/h 9 km/h 68 % 0 mm
02:06 -9.8 °C -12.9 °C 34774.2 hPa NNW 10.3 km/h 10.3 km/h 69 % 0 mm
02:08 -9.8 °C -13.1 °C 34784.4 hPa NNW 9 km/h 9 km/h 68 % 0 mm
02:13 -9.9 °C -13.2 °C 34774.2 hPa NNW 9 km/h 9 km/h 67 % 0 mm
02:16 -9.9 °C -13.3 °C 34774.2 hPa NNW 11.9 km/h 11.9 km/h 67 % 0 mm
02:19 -10.1 °C -13.4 °C 34774.2 hPa North 11.9 km/h 11.9 km/h 67 % 0 mm
02:20 -10.1 °C -13.4 °C 34774.2 hPa North 15 km/h 15 km/h 67 % 0 mm
02:25 -10.2 °C -13.5 °C 34774.2 hPa North 11.9 km/h 11.9 km/h 67 % 0 mm
02:26 -10.2 °C -13.5 °C 34774.2 hPa North 11.9 km/h 11.9 km/h 67 % 0 mm
02:31 -10.2 °C -13.5 °C 34774.2 hPa North 12.9 km/h 12.9 km/h 67 % 0 mm
02:33 -10.2 °C -13.6 °C 34774.2 hPa North 12.9 km/h 12.9 km/h 67 % 0 mm
02:36 -10.4 °C -13.6 °C 34774.2 hPa North 11.9 km/h 11.9 km/h 68 % 0 mm
02:38 -10.4 °C -13.7 °C 34774.2 hPa North 12.9 km/h 12.9 km/h 68 % 0 mm
02:41 -10.5 °C -13.6 °C 34774.2 hPa North 11.9 km/h 11.9 km/h 69 % 0 mm
02:46 -10.5 °C -13.4 °C 34774.2 hPa North 15 km/h 15 km/h 70 % 0 mm
02:47 -10.5 °C -13.4 °C 34774.2 hPa North 15.6 km/h 15.6 km/h 70 % 0 mm
02:52 -10.5 °C -13.5 °C 34774.2 hPa NNW 17.9 km/h 17.9 km/h 70 % 0 mm
02:58 -10.5 °C -13.4 °C 34760.7 hPa NNW 11.9 km/h 11.9 km/h 71 % 0 mm
03:02 -10.4 °C -13.3 °C 34760.7 hPa NNW 15 km/h 15 km/h 71 % 0 mm
03:04 -10.4 °C -13.3 °C 34760.7 hPa NNW 9 km/h 9 km/h 71 % 0 mm
03:11 -10.4 °C -13.4 °C 34774.2 hPa NNW 6 km/h 6 km/h 70 % 0 mm
03:16 -10.4 °C -13.4 °C 34774.2 hPa North 12.9 km/h 12.9 km/h 70 % 0 mm
03:19 -10.5 °C -13.5 °C 34774.2 hPa North 6 km/h   70 % 0 mm
03:24 -10.7 °C -13.7 °C 34774.2 hPa North 15 km/h 15 km/h 70 % 0 mm
03:25 -10.7 °C -13.7 °C 34774.2 hPa North 12.9 km/h 15.6 km/h 70 % 0 mm
03:29 -10.9 °C -13.6 °C 34774.2 hPa North 10.3 km/h 10.6 km/h 72 % 0 mm
03:34 -10.9 °C -13.5 °C 34774.2 hPa North 12.9 km/h 12.9 km/h 73 % 0 mm
03:35 -10.9 °C -13.5 °C 34774.2 hPa North 11.9 km/h 11.9 km/h 73 % 0 mm
03:40 -10.7 °C -13.2 °C 34774.2 hPa NNW 15 km/h 15 km/h 74 % 0 mm
03:45 -10.7 °C -13.3 °C 34774.2 hPa NNW 6 km/h 6 km/h 73 % 0 mm
03:46 -10.7 °C -13.3 °C 34774.2 hPa NNW 9 km/h 9 km/h 73 % 0 mm
03:51 -10.7 °C -13.3 °C 34774.2 hPa NNW 10.3 km/h 10.3 km/h 73 % 0 mm
03:53 -10.7 °C -13.3 °C 34774.2 hPa North 12.9 km/h 12.9 km/h 73 % 0 mm
03:56 -10.7 °C -13.3 °C 34774.2 hPa NNW 15 km/h 15 km/h 73 % 0 mm
03:59 -10.7 °C -13.3 °C 34774.2 hPa NNW 9 km/h 9 km/h 73 % 0 mm
04:04 -10.7 °C -13.5 °C 34774.2 hPa NNW 9 km/h 9 km/h 72 % 0 mm
04:09 -10.8 °C -13.3 °C 34774.2 hPa NNW 9 km/h 9 km/h 74 % 0 mm
04:11 -10.7 °C -13.2 °C 34774.2 hPa NNW 6 km/h 6 km/h 74 % 0 mm
04:16 -10.7 °C -13.2 °C 34774.2 hPa NNW 9 km/h 9 km/h 74 % 0 mm
04:18 -10.6 °C -13 °C 34774.2 hPa NNW 9 km/h 9 km/h 75 % 0 mm
04:21 -10.6 °C -13.1 °C 34774.2 hPa NNW 6 km/h 6 km/h 74 % 0 mm
04:25 -10.5 °C -13.1 °C 34774.2 hPa NNW 6 km/h 6 km/h 74 % 0 mm
04:30 -10.4 °C -13 °C 34774.2 hPa NNW 6 km/h 6 km/h 74 % 0 mm
04:31 -10.4 °C -13 °C 34774.2 hPa Calm     74 % 0 mm
04:36 -10.5 °C -13.2 °C 34774.2 hPa NNW 2.6 km/h 2.6 km/h 73 % 0 mm
04:37 -10.6 °C -13.2 °C 34774.2 hPa NNW 5.1 km/h 5.1 km/h 73 % 0 mm
04:43 -10.8 °C -13.4 °C 34774.2 hPa NNW 9 km/h 9.7 km/h 73 % 0 mm
04:49 -10.9 °C -13.4 °C 34774.2 hPa North 9 km/h 9 km/h 74 % 0 mm
04:51 -10.9 °C -13.4 °C 34774.2 hPa North 7.7 km/h 7.7 km/h 74 % 0 mm
04:56 -10.9 °C -13.3 °C 34774.2 hPa North 9 km/h 9 km/h 75 % 0 mm
05:00 -10.9 °C -13.3 °C 34774.2 hPa Calm     75 % 0 mm
05:01 -10.9 °C -13.3 °C 34760.7 hPa North 6 km/h 6 km/h 75 % 0 mm
05:07 -10.8 °C -13.2 °C 34760.7 hPa North 9 km/h 9 km/h 75 % 0 mm
05:08 -10.8 °C -13.2 °C 34760.7 hPa NNW 9 km/h 9 km/h 75 % 0 mm
05:12 -10.8 °C -13.2 °C 34774.2 hPa NNW 3.1 km/h   75 % 0 mm
05:13 -10.8 °C -13.2 °C 34774.2 hPa Calm   0.3 km/h 75 % 0 mm
05:14 -10.8 °C -13.2 °C 34774.2 hPa Calm   0.3 km/h 75 % 0 mm
05:15 -10.8 °C -13.2 °C 34774.2 hPa Calm     75 % 0 mm
05:16 -10.7 °C -13.2 °C 34774.2 hPa Calm   0.8 km/h 75 % 0 mm
05:17 -10.7 °C -13.2 °C 34774.2 hPa Calm   0.8 km/h 75 % 0 mm
05:18 -10.7 °C -13.2 °C 34774.2 hPa Calm     75 % 0 mm
05:19 -10.7 °C -13.2 °C 34760.7 hPa Calm     75 % 0 mm
05:24 -10.7 °C -12.9 °C 34760.7 hPa NNW 9 km/h 9 km/h 76 % 0 mm
05:29 -10.6 °C -12.8 °C 34760.7 hPa NNW 9 km/h 9 km/h 76 % 0 mm
05:30 -10.6 °C -12.8 °C 34760.7 hPa NNW 11.9 km/h 11.9 km/h 76 % 0 mm
05:35 -10.8 °C -13.2 °C 34760.7 hPa North 15 km/h 15 km/h 75 % 0 mm
05:38 -11 °C -13.4 °C 34760.7 hPa North 12.9 km/h 12.9 km/h 75 % 0 mm
05:39 -11.1 °C -13.4 °C 34760.7 hPa North 12.9 km/h 12.9 km/h 75 % 0 mm
05:43 -11.1 °C -13.4 °C 34760.7 hPa NNW 6 km/h 6 km/h 76 % 0 mm
05:44 -11.1 °C -13.4 °C 34760.7 hPa NNW 7.7 km/h 7.7 km/h 76 % 0 mm
05:46 -11.1 °C -13.2 °C 34760.7 hPa North 9 km/h 9 km/h 77 % 0 mm
05:49 -11.1 °C -13.2 °C 34760.7 hPa North 9 km/h 9 km/h 77 % 0 mm
05:51 -11.1 °C -13.2 °C 34760.7 hPa NNW 10.3 km/h 10.3 km/h 77 % 0 mm
05:52 -11.1 °C -13.2 °C 34760.7 hPa NNW 11.9 km/h 11.9 km/h 77 % 0 mm
05:56 -11.1 °C -13.2 °C 34760.7 hPa North 11.9 km/h 11.9 km/h 77 % 0 mm
05:57 -11.1 °C -13.2 °C 34760.7 hPa North 9 km/h 9 km/h 77 % 0 mm
06:02 -10.9 °C -13 °C 34760.7 hPa Calm     78 % 0 mm
06:07 -10.8 °C -13 °C 34760.7 hPa North 9 km/h 9 km/h 77 % 0 mm
06:12 -10.8 °C -13 °C 34760.7 hPa North 9 km/h 9 km/h 77 % 0 mm
06:17 -10.8 °C -13.1 °C 34760.7 hPa NNW 10.3 km/h 10.3 km/h 76 % 0 mm
06:22 -11.2 °C -13.5 °C 34760.7 hPa North 15 km/h 15 km/h 76 % 0 mm
06:25 -11.4 °C -13.6 °C 34760.7 hPa North 12.9 km/h 12.9 km/h 77 % 0 mm
06:29 -11.6 °C -13.5 °C 34760.7 hPa North 11.9 km/h 11.9 km/h 79 % 0 mm
06:30 -11.6 °C -13.5 °C 34760.7 hPa North 11.9 km/h 11.9 km/h 79 % 0 mm
06:32 -11.5 °C -13.4 °C 34760.7 hPa North 9 km/h 9 km/h 79 % 0 mm
06:33 -11.5 °C -13.4 °C 34760.7 hPa North 11.9 km/h 11.9 km/h 80 % 0 mm
06:37 -11.5 °C -13.4 °C 34760.7 hPa NNW 9 km/h 9 km/h 80 % 0 mm
06:41 -11.4 °C -13.2 °C 34760.7 hPa NNW 11.9 km/h 11.9 km/h 81 % 0 mm
06:42 -11.4 °C -13.2 °C 34760.7 hPa NNW 9 km/h 9 km/h 81 % 0 mm
06:47 -11.3 °C -13 °C 34760.7 hPa NNW 9 km/h 9 km/h 81 % 0 mm
06:51 -11.1 °C -12.9 °C 34760.7 hPa NNW 9 km/h 9 km/h 81 % 0 mm
06:55 -11 °C -13 °C 34760.7 hPa NNW 12.9 km/h 12.9 km/h 79 % 0 mm
06:59 -11 °C -13 °C 34760.7 hPa NNW 9 km/h 9 km/h 79 % 0 mm
07:01 -11 °C -13 °C 34760.7 hPa NNW 9 km/h 9 km/h 79 % 0 mm
07:03 -11 °C -13 °C 34760.7 hPa NNW 6 km/h 6 km/h 79 % 0 mm
07:08 -11 °C -13.1 °C 34760.7 hPa NNW 9 km/h 9 km/h 78 % 0 mm
07:13 -11.1 °C -13.2 °C 34760.7 hPa North 9 km/h 9 km/h 78 % 0 mm
07:14 -11.2 °C -13.3 °C 34760.7 hPa North 9 km/h 9 km/h 78 % 0 mm
07:19 -11.3 °C -13.2 °C 34760.7 hPa Calm     79 % 0 mm
07:20 -11.3 °C -13.2 °C 34760.7 hPa Calm     79 % 0 mm
07:25 -11.3 °C -13.3 °C 34760.7 hPa North 3.1 km/h   79 % 0 mm
07:27 -11.3 °C -13.3 °C 34760.7 hPa North 6 km/h 6 km/h 79 % 0 mm
07:28 -11.3 °C -13.3 °C 34760.7 hPa North 6 km/h 6 km/h 79 % 0 mm
07:31 -11.3 °C -13.2 °C 34760.7 hPa North 9 km/h 9 km/h 79 % 0 mm
07:33 -11.3 °C -13.2 °C 34760.7 hPa North 9 km/h 9 km/h 79 % 0 mm
07:34 -11.3 °C -13.1 °C 34760.7 hPa North 9 km/h 9 km/h 80 % 0 mm
07:39 -11.2 °C -13 °C 34760.7 hPa North 3.1 km/h 3.1 km/h 80 % 0 mm
07:40 -11.2 °C -13 °C 34760.7 hPa North 5.1 km/h 5.1 km/h 80 % 0 mm
07:41 -11.2 °C -13.2 °C 34760.7 hPa North 5.1 km/h 5.5 km/h 79 % 0 mm
07:45 -11.2 °C -13.1 °C 34760.7 hPa North 9 km/h 9 km/h 80 % 0 mm
07:46 -11.2 °C -13.1 °C 34760.7 hPa North 7.7 km/h 7.7 km/h 80 % 0 mm
07:47 -11.2 °C -13.1 °C 34760.7 hPa North 9 km/h 9 km/h 80 % 0 mm
07:52 -11.3 °C -13.2 °C 34774.2 hPa North 12.9 km/h 12.9 km/h 80 % 0 mm
07:53 -11.3 °C -13.2 °C 34774.2 hPa North 11.9 km/h 11.9 km/h 80 % 0 mm
07:54 -11.3 °C -13.2 °C 34774.2 hPa North 12.9 km/h 12.9 km/h 80 % 0 mm
07:58 -11.4 °C -13.2 °C 34774.2 hPa North 10.3 km/h 10.3 km/h 81 % 0 mm
08:00 -11.4 °C -13.2 °C 34774.2 hPa North 12.9 km/h 12.9 km/h 81 % 0 mm
08:05 -11.4 °C -13.2 °C 34774.2 hPa North 9 km/h 9 km/h 81 % 0 mm
08:07 -11.4 °C -13.2 °C 34774.2 hPa North 3.1 km/h   81 % 0 mm
08:12 -11.3 °C -12.9 °C 34774.2 hPa North 9 km/h 9 km/h 82 % 0 mm
08:13 -11.3 °C -12.9 °C 34774.2 hPa North 10.3 km/h 10.3 km/h 82 % 0 mm
08:15 -11.3 °C -12.9 °C 34774.2 hPa North 9 km/h 9 km/h 82 % 0 mm
08:17 -11.3 °C -13.1 °C 34774.2 hPa North 9 km/h 9 km/h 81 % 0 mm
08:19 -11.3 °C -12.9 °C 34774.2 hPa North 9 km/h 9 km/h 82 % 0 mm
08:21 -11.3 °C -13 °C 34774.2 hPa North 6 km/h 6 km/h 81 % 0 mm
08:26 -11.2 °C -13 °C 34774.2 hPa North 6 km/h 6 km/h 81 % 0 mm
08:31 -11.2 °C -13 °C 34774.2 hPa North 9 km/h 9 km/h 81 % 0 mm
08:32 -11.2 °C -12.9 °C 34774.2 hPa North 6 km/h 6 km/h 81 % 0 mm
08:37 -11.2 °C -12.9 °C 34774.2 hPa North 6 km/h 6 km/h 81 % 0 mm
08:39 -11.2 °C -12.9 °C 34774.2 hPa North 6 km/h 6 km/h 81 % 0 mm
08:42 -11.2 °C -13.1 °C 34774.2 hPa North 5.1 km/h 5.1 km/h 80 % 0 mm
08:44 -11.2 °C -13.1 °C 34774.2 hPa North 6 km/h 6 km/h 80 % 0 mm
08:46 -11.2 °C -13.1 °C 34774.2 hPa North 6 km/h 6 km/h 80 % 0 mm
08:49 -11.2 °C -13.1 °C 34774.2 hPa North 6 km/h 6 km/h 80 % 0 mm
08:53 -11.2 °C -13.1 °C 34774.2 hPa Calm     80 % 0 mm
08:56 -11.2 °C -13.1 °C 34774.2 hPa Calm     80 % 0 mm
09:01 -11.2 °C -13 °C 34774.2 hPa North 6 km/h 6 km/h 80 % 0 mm
09:02 -11.2 °C -13 °C 34774.2 hPa North 6 km/h 6 km/h 80 % 0 mm
09:04 -11.1 °C -12.9 °C 34774.2 hPa North 6 km/h 6 km/h 80 % 0 mm
09:06 -11.1 °C -12.9 °C 34774.2 hPa North 3.1 km/h 3.1 km/h 80 % 0 mm
09:08 -11 °C -12.9 °C 34774.2 hPa North 3.1 km/h   80 % 0 mm
09:13 -10.9 °C -12.7 °C 34774.2 hPa North 6 km/h 6 km/h 80 % 0 mm
09:18 -10.8 °C -12.7 °C 34774.2 hPa North 3.1 km/h 3.1 km/h 80 % 0 mm
09:19 -10.8 °C -12.7 °C 34774.2 hPa North 3.1 km/h 3.1 km/h 80 % 0 mm
09:23 -10.7 °C -12.6 °C 34774.2 hPa North 6 km/h 6 km/h 80 % 0 mm
09:24 -10.7 °C -12.6 °C 34774.2 hPa North 3.1 km/h 3.1 km/h 80 % 0 mm
09:26 -10.7 °C -12.6 °C 34774.2 hPa Calm     79 % 0 mm
09:27 -10.7 °C -12.6 °C 34774.2 hPa Calm     79 % 0 mm
09:30 -10.6 °C -12.6 °C 34774.2 hPa Calm     79 % 0 mm
09:33 -10.6 °C -12.6 °C 34774.2 hPa North 6 km/h 6 km/h 79 % 0 mm
09:36 -10.5 °C -12.4 °C 34774.2 hPa North 6 km/h 6 km/h 79 % 0 mm
09:38 -10.4 °C -12.6 °C 34774.2 hPa Calm     78 % 0 mm
09:42 -10.4 °C -12.6 °C 34774.2 hPa North 9 km/h 9 km/h 78 % 0 mm
09:47 -10.6 °C -12.7 °C 34774.2 hPa North 9 km/h 9 km/h 77 % 0 mm
09:48 -10.6 °C -12.7 °C 34774.2 hPa North 9 km/h 9 km/h 77 % 0 mm
09:52 -10.6 °C -12.8 °C 34774.2 hPa North 6 km/h 6 km/h 77 % 0 mm
09:55 -10.6 °C -12.7 °C 34774.2 hPa North 6 km/h 6 km/h 77 % 0 mm
09:59 -10.5 °C -12.7 °C 34784.4 hPa North 6 km/h 6 km/h 77 % 0 mm
10:01 -10.4 °C -12.7 °C 34784.4 hPa North 6 km/h 6 km/h 77 % 0 mm
10:06 -10.4 °C -12.7 °C 34784.4 hPa Calm     76 % 0 mm
10:11 -10.3 °C -12.6 °C 34784.4 hPa Calm     76 % 0 mm
10:16 -10.1 °C -12.4 °C 34784.4 hPa Calm     76 % 0 mm
10:20 -9.9 °C -12.3 °C 34784.4 hPa Calm     75 % 0 mm
10:21 -9.8 °C -12.3 °C 34784.4 hPa Calm     75 % 0 mm
10:25 -9.7 °C -12.2 °C 34784.4 hPa Calm     74 % 0 mm
10:30 -9.6 °C -12.1 °C 34784.4 hPa Calm   2.6 km/h 74 % 0 mm
10:31 -9.5 °C -11.9 °C 34784.4 hPa North 3.1 km/h 3.1 km/h 75 % 0 mm
10:36 -9.4 °C -11.8 °C 34784.4 hPa North 6 km/h 6 km/h 75 % 0 mm
10:37 -9.4 °C -11.8 °C 34784.4 hPa North 3.1 km/h 3.1 km/h 75 % 0 mm
10:42 -9.3 °C -11.8 °C 34784.4 hPa North 6 km/h 6 km/h 75 % 0 mm
10:43 -9.3 °C -11.7 °C 34784.4 hPa North 6 km/h 6 km/h 76 % 0 mm
10:48 -9.4 °C -11.8 °C 34784.4 hPa North 9 km/h 9 km/h 76 % 0 mm
10:50 -9.4 °C -11.6 °C 34784.4 hPa North 9 km/h 9 km/h 77 % 0 mm
10:51 -9.4 °C -11.6 °C 34784.4 hPa North 9 km/h 9 km/h 77 % 0 mm
10:57 -9.5 °C -11.6 °C 34797.9 hPa North 9 km/h 9 km/h 78 % 0 mm
11:00 -9.5 °C -11.5 °C 34797.9 hPa NNE 9 km/h 9 km/h 79 % 0 mm
11:05 -9.6 °C -11.5 °C 34797.9 hPa ENE 9 km/h 9.3 km/h 80 % 0 mm
11:10 -9.6 °C -11.4 °C 34797.9 hPa East 15.6 km/h 15.6 km/h 81 % 0 mm
11:12 -9.7 °C -11.4 °C 34797.9 hPa East 15 km/h 15 km/h 81 % 0 mm
11:17 -9.6 °C -11.3 °C 34797.9 hPa East 18.2 km/h 18.2 km/h 82 % 0 mm
11:18 -9.6 °C -11.3 °C 34797.9 hPa East 17.9 km/h 17.9 km/h 82 % 0 mm
11:23 -9.6 °C -11.2 °C 34797.9 hPa East 15 km/h 15 km/h 83 % 0 mm
11:28 -9.7 °C -11.3 °C 34797.9 hPa East 11.9 km/h 11.9 km/h 82 % 0 mm
11:29 -9.7 °C -11.3 °C 34797.9 hPa East 11.9 km/h 11.9 km/h 82 % 0 mm
11:32 -9.7 °C -11.3 °C 34797.9 hPa East 9 km/h 9 km/h 82 % 0 mm
11:34 -9.6 °C -11.3 °C 34797.9 hPa East 11.9 km/h 11.9 km/h 82 % 0 mm
11:39 -9.6 °C -11.3 °C 34797.9 hPa East 11.9 km/h 11.9 km/h 82 % 0 mm
11:41 -9.6 °C -11.2 °C 34784.4 hPa East 12.9 km/h 12.9 km/h 82 % 0 mm
11:44 -9.5 °C -11.2 °C 34784.4 hPa East 9 km/h 9 km/h 82 % 0 mm
11:46 -9.4 °C -11.1 °C 34784.4 hPa East 11.9 km/h 11.9 km/h 82 % 0 mm
11:47 -9.4 °C -11.1 °C 34784.4 hPa East 9 km/h 9 km/h 82 % 0 mm
11:51 -9.4 °C -11.2 °C 34784.4 hPa East 6 km/h 6 km/h 81 % 0 mm
11:52 -9.4 °C -11.2 °C 34784.4 hPa East 6 km/h 6 km/h 81 % 0 mm
11:57 -9.4 °C -11.2 °C 34784.4 hPa East 6 km/h 6 km/h 81 % 0 mm
11:58 -9.4 °C -11.2 °C 34784.4 hPa East 9 km/h 9 km/h 81 % 0 mm
12:03 -9.5 °C -11.3 °C 34774.2 hPa East 9 km/h 9 km/h 81 % 0 mm
12:06 -9.5 °C -11.3 °C 34774.2 hPa East 9 km/h 9 km/h 81 % 0 mm
12:11 -9.5 °C -11.3 °C 34774.2 hPa East 9 km/h 9 km/h 81 % 0 mm
12:12 -9.5 °C -11.3 °C 34774.2 hPa East 11.9 km/h 11.9 km/h 81 % 0 mm
12:18 -9.5 °C -11.3 °C 34774.2 hPa East 9 km/h 9 km/h 81 % 0 mm
12:19 -9.5 °C -11.2 °C 34774.2 hPa East 6 km/h 6 km/h 82 % 0 mm
12:24 -9.4 °C -11.2 °C 34774.2 hPa East 9 km/h 9 km/h 82 % 0 mm
12:29 -9.4 °C -11.2 °C 34760.7 hPa East 6 km/h 6 km/h 82 % 0 mm
12:30 -9.4 °C -11.2 °C 34760.7 hPa East 2.6 km/h 7.7 km/h 82 % 0 mm
12:35 -9.4 °C -11.1 °C 34760.7 hPa East 5.1 km/h 7.7 km/h 82 % 0 mm
12:37 -9.3 °C -11.1 °C 34760.7 hPa East 9 km/h 9 km/h 82 % 0 mm
12:42 -9.3 °C -11 °C 34750.5 hPa East 9 km/h 9 km/h 82 % 0 mm
12:44 -9.3 °C -11.1 °C 34750.5 hPa East 11.9 km/h 11.9 km/h 82 % 0 mm
12:47 -9.4 °C -11.2 °C 34750.5 hPa East 9 km/h 9 km/h 81 % 0 mm
12:51 -9.4 °C -11.2 °C 34750.5 hPa East 9 km/h 9 km/h 81 % 0 mm
12:53 -9.4 °C -11.2 °C 34750.5 hPa East 12.9 km/h 12.9 km/h 81 % 0 mm
12:57 -9.4 °C -11.2 °C 34740.4 hPa ENE 10.3 km/h 10.3 km/h 81 % 0 mm
12:58 -9.4 °C -11.2 °C 34740.4 hPa ENE 9 km/h 9 km/h 81 % 0 mm
13:03 -9.4 °C -11.2 °C 34740.4 hPa ENE 9 km/h 9 km/h 81 % 0 mm
13:08 -9.3 °C -11.1 °C 34726.8 hPa ENE 6 km/h 6 km/h 82 % 0 mm
13:10 -9.3 °C -11.1 °C 34726.8 hPa ENE 6 km/h 6 km/h 81 % 0 mm
13:15 -9.3 °C -11.2 °C 34726.8 hPa ENE 9 km/h 9 km/h 81 % 0 mm
13:20 -9.3 °C -11 °C 34726.8 hPa ENE 9 km/h 9 km/h 82 % 0 mm
13:21 -9.3 °C -11 °C 34726.8 hPa ENE 9 km/h 9 km/h 82 % 0 mm
13:22 -9.3 °C -11 °C 34726.8 hPa ENE 9 km/h 9 km/h 82 % 0 mm
13:27 -9.3 °C -11 °C 34716.7 hPa ENE 9 km/h 9 km/h 82 % 0 mm
13:28 -9.3 °C -11 °C 34716.7 hPa ENE 9 km/h 9 km/h 82 % 0 mm
13:33 -9.3 °C -11 °C 34716.7 hPa ENE 9 km/h 9 km/h 82 % 0 mm
13:35 -9.3 °C -10.9 °C 34716.7 hPa ENE 9 km/h 9 km/h 82 % 0 mm
13:36 -9.3 °C -10.9 °C 34716.7 hPa ENE 9 km/h 9 km/h 82 % 0 mm
13:41 -9.3 °C -10.9 °C 34703.1 hPa ENE 9 km/h 9 km/h 83 % 0 mm
13:45 -9.2 °C -10.8 °C 34703.1 hPa ENE 9 km/h 9 km/h 83 % 0 mm
13:47 -9.2 °C -10.8 °C 34703.1 hPa ENE 9 km/h 9 km/h 83 % 0 mm
13:50 -9.2 °C -10.8 °C 34703.1 hPa ENE 6 km/h 6 km/h 83 % 0 mm
13:51 -9.2 °C -10.8 °C 34703.1 hPa ENE 6 km/h 6 km/h 83 % 0 mm
13:53 -9.2 °C -10.8 °C 34703.1 hPa ENE 6 km/h 6 km/h 83 % 0 mm
13:58 -9.1 °C -10.7 °C 34703.1 hPa ENE 3.1 km/h   83 % 0 mm
13:59 -9.1 °C -10.7 °C 34703.1 hPa ENE 2.6 km/h 2.6 km/h 83 % 0 mm
14:04 -9.1 °C -10.7 °C 34703.1 hPa ENE 9 km/h 9 km/h 83 % 0 mm
14:09 -9.1 °C -10.7 °C 34693 hPa ENE 9 km/h 9 km/h 83 % 0 mm
14:10 -9.1 °C -10.7 °C 34693 hPa ENE 9 km/h 9 km/h 83 % 0 mm
14:12 -9.1 °C -10.7 °C 34693 hPa ENE 6 km/h 6 km/h 83 % 0 mm
14:17 -9.1 °C -10.8 °C 34693 hPa ENE 9 km/h 9 km/h 82 % 0 mm
14:22 -9.1 °C -10.8 °C 34693 hPa ENE 9 km/h 9 km/h 82 % 0 mm
14:27 -9.1 °C -10.9 °C 34682.8 hPa ENE 9 km/h 9 km/h 81 % 0 mm
14:28 -9.1 °C -10.9 °C 34682.8 hPa ENE 9 km/h 9 km/h 81 % 0 mm
14:30 -9.1 °C -10.9 °C 34682.8 hPa ENE 9 km/h 9 km/h 81 % 0 mm
14:35 -9.1 °C -10.7 °C 34682.8 hPa ENE 9 km/h 9 km/h 82 % 0 mm
14:40 -9 °C -10.7 °C 34682.8 hPa ENE 9 km/h 9 km/h 82 % 0 mm
14:41 -9.1 °C -10.7 °C 34682.8 hPa ENE 9 km/h 9 km/h 82 % 0 mm
14:46 -9.1 °C -10.7 °C 34682.8 hPa ENE 9 km/h 9 km/h 82 % 0 mm
14:47 -9.1 °C -10.7 °C 34682.8 hPa ENE 9 km/h 9 km/h 82 % 0 mm
14:52 -9 °C -10.7 °C 34682.8 hPa ENE 9 km/h 9 km/h 82 % 0 mm
14:54 -9 °C -10.6 °C 34682.8 hPa ENE 9 km/h 9 km/h 83 % 0 mm
14:58 -9.1 °C -10.7 °C 34669.3 hPa ENE 9 km/h 9 km/h 82 % 0 mm
15:03 -8.9 °C -10.6 °C 34669.3 hPa ENE 6 km/h 6 km/h 83 % 0 mm
15:04 -8.9 °C -10.5 °C 34669.3 hPa ENE 6 km/h 6 km/h 83 % 0 mm
15:09 -8.9 °C -10.7 °C 34669.3 hPa ENE 9 km/h 9 km/h 82 % 0 mm
15:14 -8.9 °C -10.6 °C 34669.3 hPa ENE 7.7 km/h 7.7 km/h 82 % 0 mm
15:15 -8.9 °C -10.6 °C 34669.3 hPa ENE 9 km/h 9 km/h 82 % 0 mm
15:20 -8.9 °C -10.6 °C 34659.1 hPa ENE 6 km/h 6 km/h 82 % 0 mm
15:24 -8.8 °C -10.5 °C 34659.1 hPa Calm     82 % 0 mm
15:25 -8.8 °C -10.5 °C 34659.1 hPa ENE 3.1 km/h 3.1 km/h 82 % 0 mm
15:28 -8.8 °C -10.7 °C 34659.1 hPa Calm     80 % 0 mm
15:30 -8.8 °C -10.8 °C 34659.1 hPa Calm     79 % 0 mm
15:35 -8.7 °C -10.8 °C 34659.1 hPa ENE 9 km/h 9 km/h 79 % 0 mm
15:40 -8.7 °C -10.8 °C 34659.1 hPa ENE 9 km/h 9 km/h 79 % 0 mm
15:45 -8.8 °C -10.7 °C 34659.1 hPa ENE 9 km/h 9 km/h 80 % 0 mm
15:46 -8.8 °C -10.7 °C 34659.1 hPa ENE 10.3 km/h 10.3 km/h 80 % 0 mm
15:48 -8.8 °C -10.7 °C 34645.6 hPa ENE 9 km/h 9.3 km/h 80 % 0 mm
15:51 -8.8 °C -10.7 °C 34659.1 hPa ENE 9 km/h 9 km/h 81 % 0 mm
15:56 -8.9 °C -10.7 °C 34659.1 hPa ENE 11.9 km/h 11.9 km/h 81 % 0 mm
15:58 -8.9 °C -10.7 °C 34645.6 hPa ENE 11.9 km/h 11.9 km/h 81 % 0 mm
16:03 -8.9 °C -10.7 °C 34645.6 hPa ENE 9 km/h 9 km/h 82 % 0 mm
16:10 -8.9 °C -10.7 °C 34645.6 hPa ENE 11.9 km/h 11.9 km/h 82 % 0 mm
16:15 -8.9 °C -10.5 °C 34645.6 hPa ENE 11.9 km/h 11.9 km/h 83 % 0 mm
16:16 -8.9 °C -10.6 °C 34645.6 hPa ENE 12.9 km/h 12.9 km/h 83 % 0 mm
16:21 -8.9 °C -10.7 °C 34645.6 hPa ENE 12.9 km/h 12.9 km/h 82 % 0 mm
16:22 -8.9 °C -10.7 °C 34645.6 hPa ENE 11.9 km/h 11.9 km/h 82 % 0 mm
16:23 -8.9 °C -10.6 °C 34645.6 hPa ENE 12.9 km/h 12.9 km/h 82 % 0 mm
16:27 -8.9 °C -10.6 °C 34645.6 hPa ENE 17.9 km/h 17.9 km/h 82 % 0 mm
16:28 -8.8 °C -10.4 °C 34645.6 hPa ENE 17.9 km/h 17.9 km/h 83 % 0 mm
16:29 -8.8 °C -10.3 °C 34645.6 hPa ENE 17.9 km/h 17.9 km/h 84 % 0 mm
16:34 -8.8 °C -10.2 °C 34645.6 hPa ENE 17.9 km/h 17.9 km/h 85 % 0 mm
16:36 -8.8 °C -10.2 °C 34645.6 hPa ENE 17.9 km/h 17.9 km/h 85 % 0 mm
16:41 -8.8 °C -10.2 °C 34645.6 hPa ENE 11.9 km/h 11.9 km/h 86 % 0 mm
16:42 -8.9 °C -10.2 °C 34645.6 hPa ENE 12.9 km/h 12.9 km/h 86 % 0 mm
16:44 -8.9 °C -10.2 °C 34645.6 hPa ENE 12.9 km/h 12.9 km/h 86 % 0 mm
16:47 -8.9 °C -10.2 °C 34645.6 hPa ENE 11.9 km/h 11.9 km/h 86 % 0 mm
16:49 -8.9 °C -10.2 °C 34645.6 hPa ENE 9 km/h 9 km/h 86 % 0 mm
16:50 -8.9 °C -10.2 °C 34645.6 hPa ENE 11.9 km/h 11.9 km/h 86 % 0 mm
16:55 -9 °C -10.3 °C 34635.4 hPa ENE 18.2 km/h 18.2 km/h 86 % 0 mm
17:01 -8.9 °C -10.2 °C 34645.6 hPa ENE 18.2 km/h 18.2 km/h 86 % 0 mm
17:06 -8.9 °C -10.1 °C 34645.6 hPa ENE 23.8 km/h 23.8 km/h 87 % 0 mm
17:11 -8.9 °C -10.1 °C 34645.6 hPa ENE 20.9 km/h 20.9 km/h 87 % 0 mm
17:14 -8.9 °C -10.1 °C 34645.6 hPa ENE 20.9 km/h 20.9 km/h 87 % 0 mm
17:19 -8.9 °C -10 °C 34645.6 hPa ENE 20.9 km/h 20.9 km/h 88 % 0 mm
17:23 -8.8 °C -9.9 °C 34635.4 hPa ENE 26.9 km/h 26.9 km/h 88 % 0 mm
17:24 -8.8 °C -9.9 °C 34635.4 hPa East 26.9 km/h 26.9 km/h 88 % 0 mm
17:27 -8.8 °C -9.9 °C 34635.4 hPa ENE 23.8 km/h 23.8 km/h 88 % 0 mm
17:30 -8.8 °C -10.1 °C 34635.4 hPa NE 23.8 km/h 23.8 km/h 87 % 0 mm
17:35 -8.8 °C -10 °C 34635.4 hPa ENE 26.9 km/h 26.9 km/h 87 % 0 mm
17:39 -8.8 °C -10 °C 34645.6 hPa ENE 23.8 km/h 23.8 km/h 87 % 0 mm
17:40 -8.8 °C -10.1 °C 34645.6 hPa ENE 23.8 km/h 23.8 km/h 87 % 0 mm
17:45 -8.8 °C -9.9 °C 34645.6 hPa ENE 20.9 km/h 20.9 km/h 87 % 0 mm
17:46 -8.8 °C -9.9 °C 34645.6 hPa ENE 20.9 km/h 20.9 km/h 87 % 0 mm
17:51 -8.7 °C -9.9 °C 34645.6 hPa ENE 12.9 km/h 12.9 km/h 87 % 0 mm
17:53 -8.7 °C -10.1 °C 34645.6 hPa ENE 12.9 km/h 12.9 km/h 86 % 0 mm
17:57 -8.7 °C -10 °C 34645.6 hPa NE 11.9 km/h 11.9 km/h 86 % 0 mm
17:58 -8.7 °C -10 °C 34645.6 hPa NE 11.9 km/h 11.9 km/h 86 % 0 mm
17:59 -8.7 °C -10 °C 34645.6 hPa NE 10.3 km/h 10.3 km/h 86 % 0 mm
18:04 -8.7 °C -9.9 °C 34645.6 hPa NE 11.9 km/h 11.9 km/h 86 % 0 mm
18:06 -8.7 °C -10.1 °C 34645.6 hPa NE 9 km/h 9 km/h 85 % 0 mm
18:11 -8.6 °C -10.1 °C 34645.6 hPa NE 6 km/h 6 km/h 85 % 0 mm
18:12 -8.6 °C -10 °C 34645.6 hPa NE 9 km/h 9 km/h 85 % 0 mm
18:17 -8.6 °C -10.2 °C 34645.6 hPa NE 6 km/h 6 km/h 83 % 0 mm
18:22 -8.5 °C -10.2 °C 34635.4 hPa Calm     82 % 0 mm
18:27 -8.4 °C -10.2 °C 34645.6 hPa Calm     81 % 0 mm
18:29 -8.4 °C -10.2 °C 34635.4 hPa Calm     81 % 0 mm
18:31 -8.4 °C -10.2 °C 34645.6 hPa Calm     81 % 0 mm
18:34 -8.3 °C -10.3 °C 34635.4 hPa NE 9 km/h 9 km/h 80 % 0 mm
18:35 -8.3 °C -10.2 °C 34635.4 hPa NE 9 km/h 9 km/h 80 % 0 mm
18:41 -8.3 °C -10.3 °C 34635.4 hPa NE 6 km/h 6 km/h 79 % 0 mm
18:42 -8.3 °C -10.3 °C 34635.4 hPa NE 6 km/h 6 km/h 79 % 0 mm
18:48 -8.3 °C -10.4 °C 34635.4 hPa NE 9 km/h 9 km/h 79 % 0 mm
18:53 -8.4 °C -10.4 °C 34635.4 hPa Calm     79 % 0 mm
18:58 -8.4 °C -10.4 °C 34635.4 hPa Calm     79 % 0 mm
19:00 -8.4 °C -10.4 °C 34635.4 hPa Calm     79 % 0 mm
19:05 -8.5 °C -10.5 °C 34645.6 hPa Calm     79 % 0 mm
19:07 -8.5 °C -10.6 °C 34645.6 hPa Calm     79 % 0 mm
19:12 -8.5 °C -10.4 °C 34645.6 hPa Calm     80 % 0 mm
19:16 -8.5 °C -10.4 °C 34645.6 hPa Calm     80 % 0 mm
19:21 -8.5 °C -10.4 °C 34645.6 hPa NE 9 km/h 9 km/h 80 % 0 mm
19:23 -8.5 °C -10.4 °C 34645.6 hPa NE 9 km/h 9 km/h 80 % 0 mm
19:28 -8.6 °C -10.5 °C 34645.6 hPa NE 9 km/h 9 km/h 80 % 0 mm
19:29 -8.7 °C -10.6 °C 34645.6 hPa NE 9 km/h 9 km/h 80 % 0 mm
19:34 -8.7 °C -10.5 °C 34645.6 hPa NE 6 km/h 6 km/h 81 % 0 mm
19:37 -8.7 °C -10.5 °C 34645.6 hPa NE 6 km/h 6 km/h 81 % 0 mm
19:39 -8.7 °C -10.6 °C 34645.6 hPa NE 9 km/h 9 km/h 81 % 0 mm
19:42 -8.8 °C -10.6 °C 34645.6 hPa NE 6 km/h 6 km/h 81 % 0 mm
19:45 -8.8 °C -10.6 °C 34645.6 hPa NNE 10.3 km/h 10.3 km/h 81 % 0 mm
19:48 -8.8 °C -10.7 °C 34645.6 hPa NNE 9 km/h 9 km/h 81 % 0 mm
19:53 -8.9 °C -10.7 °C 34645.6 hPa NNE 9 km/h 9 km/h 81 % 0 mm
19:54 -8.9 °C -10.8 °C 34645.6 hPa Calm     81 % 0 mm
19:59 -9 °C -10.9 °C 34645.6 hPa NNE 9 km/h 9 km/h 80 % 0 mm
20:01 -9 °C -10.9 °C 34645.6 hPa NNE 7.7 km/h 7.7 km/h 80 % 0 mm
20:06 -9.1 °C -11.1 °C 34645.6 hPa North 10.3 km/h 10.3 km/h 80 % 0 mm
20:11 -9.2 °C -10.9 °C 34645.6 hPa North 3.1 km/h   81 % 0 mm
20:13 -9.1 °C -10.9 °C 34645.6 hPa Calm     81 % 0 mm
20:18 -9.2 °C -10.9 °C 34645.6 hPa North 9 km/h 9 km/h 81 % 0 mm
20:19 -9.2 °C -11 °C 34645.6 hPa North 9 km/h 9 km/h 81 % 0 mm
20:23 -9.3 °C -11.1 °C 34645.6 hPa North 10.3 km/h 10.3 km/h 81 % 0 mm
20:24 -9.3 °C -11.2 °C 34645.6 hPa North 12.9 km/h 12.9 km/h 80 % 0 mm
20:29 -9.4 °C -11.2 °C 34645.6 hPa NNW 11.9 km/h 11.9 km/h 81 % 0 mm
20:32 -9.5 °C -11.3 °C 34645.6 hPa NNW 6 km/h 6 km/h 81 % 0 mm
20:37 -9.6 °C -11.3 °C 34645.6 hPa NNW 6 km/h 6 km/h 81 % 0 mm
20:38 -9.6 °C -11.3 °C 34645.6 hPa NNW 6 km/h 6 km/h 81 % 0 mm
20:43 -9.5 °C -11.2 °C 34645.6 hPa Calm     82 % 0 mm
20:44 -9.5 °C -11.2 °C 34645.6 hPa Calm     82 % 0 mm
20:47 -9.5 °C -11.2 °C 34645.6 hPa NNW 7.7 km/h 7.7 km/h 82 % 0 mm
20:51 -9.5 °C -11.2 °C 34645.6 hPa North 10.3 km/h 10.3 km/h 82 % 0 mm
20:53 -9.6 °C -11.2 °C 34645.6 hPa North 9 km/h 9 km/h 82 % 0 mm
20:58 -9.6 °C -11.2 °C 34645.6 hPa North 9 km/h 9 km/h 82 % 0 mm
21:00 -9.6 °C -11.2 °C 34645.6 hPa North 9 km/h 9 km/h 83 % 0 mm
21:05 -9.6 °C -11.2 °C 34645.6 hPa North 10.3 km/h 10.3 km/h 82 % 0 mm
21:10 -9.6 °C -11.2 °C 34645.6 hPa North 9 km/h 9 km/h 82 % 0 mm
21:11 -9.6 °C -11.2 °C 34645.6 hPa North 10.3 km/h 10.3 km/h 83 % 0 mm
21:12 -9.6 °C -11.3 °C 34645.6 hPa North 15.6 km/h 15.6 km/h 82 % 0 mm
21:16 -9.6 °C -11.2 °C 34645.6 hPa NNE 11.9 km/h 11.9 km/h 83 % 0 mm
21:18 -9.6 °C -11.2 °C 34645.6 hPa NNE 9 km/h 9 km/h 83 % 0 mm
21:23 -9.6 °C -11.2 °C 34645.6 hPa NNE 11.9 km/h 11.9 km/h 83 % 0 mm
21:26 -9.6 °C -11.3 °C 34645.6 hPa North 15 km/h 15 km/h 82 % 0 mm
21:31 -9.6 °C -11.2 °C 34645.6 hPa North 12.9 km/h 12.9 km/h 83 % 0 mm
21:36 -9.6 °C -11.2 °C 34645.6 hPa North 9 km/h 9 km/h 83 % 0 mm
21:38 -9.6 °C -11.3 °C 34645.6 hPa North 10.3 km/h 10.3 km/h 82 % 0 mm
21:40 -9.6 °C -11.3 °C 34645.6 hPa North 9 km/h 9 km/h 82 % 0 mm
21:44 -9.6 °C -11.3 °C 34645.6 hPa NNW 15 km/h 15 km/h 82 % 0 mm
21:49 -9.6 °C -11.5 °C 34645.6 hPa North 11.9 km/h 11.9 km/h 80 % 0 mm
21:54 -9.6 °C -11.6 °C 34645.6 hPa North 10.3 km/h 10.3 km/h 79 % 0 mm
21:55 -9.6 °C -11.6 °C 34645.6 hPa North 9 km/h 9 km/h 79 % 0 mm
22:01 -9.6 °C -11.6 °C 34645.6 hPa North 11.9 km/h 11.9 km/h 78 % 0 mm
22:06 -9.5 °C -11.7 °C 34645.6 hPa North 11.9 km/h 11.9 km/h 77 % 0 mm
22:09 -9.4 °C -11.7 °C 34645.6 hPa NNW 9 km/h 9 km/h 77 % 0 mm
22:21 -9.3 °C -11.8 °C 34645.6 hPa NNW 9 km/h 9 km/h 75 % 0 mm
22:28 -9.3 °C -11.9 °C 34645.6 hPa NNW 3.1 km/h 3.1 km/h 74 % 0 mm
22:30 -9.3 °C -11.9 °C 34645.6 hPa NNW 2.6 km/h 7.7 km/h 74 % 0 mm
22:31 -9.3 °C -11.9 °C 34645.6 hPa NNW 9 km/h 9 km/h 74 % 0 mm
22:32 -9.3 °C -11.9 °C 34645.6 hPa NNW 9 km/h 9 km/h 74 % 0 mm
22:34 -9.3 °C -11.9 °C 34645.6 hPa NNW 9 km/h 9 km/h 74 % 0 mm
22:35 -9.3 °C -11.9 °C 34645.6 hPa NNW 9 km/h 9 km/h 74 % 0 mm
22:36 -9.3 °C -11.8 °C 34645.6 hPa NNW 9 km/h 9 km/h 74 % 0 mm
22:38 -9.3 °C -11.8 °C 34645.6 hPa NNW 9 km/h 9 km/h 74 % 0 mm
22:42 -9.3 °C -11.9 °C 34645.6 hPa NW 9 km/h 9 km/h 73 % 0 mm
22:43 -9.3 °C -11.9 °C 34645.6 hPa NW 9 km/h 9 km/h 73 % 0 mm
22:44 -9.3 °C -11.9 °C 34645.6 hPa NW 11.9 km/h 11.9 km/h 73 % 0 mm
22:47 -9.2 °C -11.9 °C 34645.6 hPa NW 11.9 km/h 11.9 km/h 73 % 0 mm
22:48 -9.2 °C -11.9 °C 34635.4 hPa NW 11.9 km/h 11.9 km/h 73 % 0 mm
22:49 -9.2 °C -11.9 °C 34635.4 hPa NW 11.9 km/h 11.9 km/h 73 % 0 mm
22:50 -9.2 °C -11.9 °C 34635.4 hPa NW 12.9 km/h 12.9 km/h 73 % 0 mm
22:52 -9.2 °C -11.9 °C 34635.4 hPa NW 15 km/h 15 km/h 73 % 0 mm
22:53 -9.3 °C -11.9 °C 34635.4 hPa NW 9 km/h 9 km/h 73 % 0 mm
22:57 -9.3 °C -12 °C 34635.4 hPa NW 9 km/h 9 km/h 73 % 0 mm
23:01 -9.6 °C -12.2 °C 34635.4 hPa NW 9 km/h 9 km/h 73 % 0 mm
23:07 -9.7 °C -12.2 °C 34635.4 hPa NNW 11.9 km/h 11.9 km/h 75 % 0 mm
23:12 -9.8 °C -12.2 °C 34635.4 hPa NNW 15 km/h 15 km/h 76 % 0 mm
23:17 -10.1 °C -12.2 °C 34635.4 hPa North 23.8 km/h 23.8 km/h 77 % 0 mm
23:18 -10.1 °C -12.2 °C 34635.4 hPa North 23.8 km/h 23.8 km/h 77 % 0 mm
23:23 -10.1 °C -12.2 °C 34635.4 hPa North 17.9 km/h 17.9 km/h 78 % 0 mm
23:28 -10.2 °C -12.3 °C 34625.2 hPa North 15 km/h 15 km/h 78 % 0 mm
23:33 -10.2 °C -12.3 °C 34635.4 hPa NNW 15.6 km/h 15.6 km/h 78 % 0 mm
23:34 -10.2 °C -12.3 °C 34635.4 hPa NNW 11.9 km/h 11.9 km/h 78 % 0 mm
23:39 -10.2 °C -12.2 °C 34635.4 hPa North 11.9 km/h 11.9 km/h 79 % 0 mm
23:41 -10.2 °C -12.2 °C 34635.4 hPa North 15 km/h 15 km/h 79 % 0 mm
23:46 -10.2 °C -12.2 °C 34635.4 hPa North 15 km/h 15 km/h 79 % 0 mm
23:47 -10.2 °C -12.2 °C 34635.4 hPa North 15 km/h 15 km/h 79 % 0 mm
23:52 -10.3 °C -12.3 °C 34625.2 hPa NNW 12.9 km/h 12.9 km/h 79 % 0 mm
23:55 -10.3 °C -12.3 °C 34625.2 hPa North 9 km/h 9 km/h 79 % 0 mm
Puerto Banus, Marbella
Elogios de Weather Underground - 2.75 mb

Guión original por  Jim McMurry - jmcmurry@mwt.net Adaptado para la plantilla por  Wim van der Kuil - Leuven-Template.eu

Usted encontrará nuestra información del tiempo también en:

Weather Underground

Iberian Peninsula Weather Network